VVTSVVCI

Guest
Details From VVTS - TAN SON NHAT INTL
To VVCI - HAIPHONG CATBI
Flight Number -
Tags generated
Created
Modified
Stats Distance 656 nm / 1,216 km
Max Altitude 35,000 ft / 10,668 m
Waypoints 10
Social Downloads 3
Likes 0
Share VATSIM

Download

Looking for another format? Having issues loading an existing format? Contact us
Advertisement - Login to hide

Notes

Basic altitude profile: - Ascent Rate: 2500ft/min - Ascent Speed: 250kts - Cruise Altitude: 35000ft - Cruise Speed: 420kts - Descent Rate: 1500ft/min - Descent Speed: 250kts Options: - Use NATs: yes - Use PACOTS: yes - Use low airways: yes - Use high airways: yes

Route

VVTS AC W1 MAREL VVCI

ID Type Via Altitude (ft/m) Position (lat/lon) Dist (leg/tot) Name
O VVTS APT - 0 / 0 10.81875 / 106.65173 - / 0 nm TAN SON NHAT INTL
AC NDB - 11,500 / 3,505 10.93917 / 107.18833 32 / 32 nm ANLOC NDB
BU NDB W1 (AWY-LO) 35,000 / 10,668 12.67028 / 108.04222 115 / 147 nm BUON MA THUOT NDB
PK NDB W1 (AWY-HI) 34,000 / 10,363 14.00667 / 108.00889 80 / 228 nm PLEIKU NDB
DAN VOR W1 (AWY-HI) 35,000 / 10,668 16.05276 / 108.19823 123 / 351 nm DANANG VOR-DME
HAMIN FIX W1 (AWY-HI) 34,000 / 10,363 17.12972 / 107.67778 71 / 422 nm
XONUS FIX W1 (AWY-HI) 34,000 / 10,363 18.07000 / 107.23306 61 / 484 nm
HATIN FIX W1 (AWY-HI) 30,100 / 9,174 18.46694 / 107.04889 26 / 510 nm
MAREL FIX W1 (AWY-HI) 20,400 / 6,218 19.22806 / 106.69361 49 / 560 nm
O VVCI APT - 0 / 0 20.81939 / 106.72499 95 / 656 nm HAIPHONG CATBI

Altitude Profile

Advertisement - Login to hide

Weather


0- 5 10 15 20 25 30 35+ Temperature / °C

Clouds and Precipitation
Forecast for 2018-12-16 12:00 UTC. Updated 10 minutes ago

Ground ~20,000 ft ~40,000 ft Winds

VVTS

Details ICAO VVTS (SGN)
Name Tan Son Nhat International Airport
Region Vietnam
Timezone Asia/Ho_Chi_Minh (UTC+7.0)
Stats Elevation 33 ft / 10 m (AMSL)
Location 10.818700° 106.652000°
Runways 2
Magnetic Variation 0.516° W

METAR

VVTS 160930Z 04006KT 9999 SCT017 BKN050 31/22 Q1010 NOSIG

Decode

TAF

TAF VVTS 160500Z 1606/1712 07008KT 9999 SCT015 SCT040 TEMPO 1608/1612 07015G25KT 5000 TSRA BKN013 FEW015CB TEMPO 1708/1712 TS SCT015 FEW017CB

Decode

Departure Runways

ID Width Length Bearing (true/mag) Surface Threshold Overrun Markings Lighting
07L 148 ft / 45 m 9,971 ft / 3,039 m 68.93° / 69.45° ASPHALT 0 ft / 0 m 1,040 ft / 317 m PREC-APP EDGE THRESHOLD ALSF-II
07R 148 ft / 45 m 12,550 ft / 3,825 m 68.94° / 69.45° ASPHALT 2,513 ft / 766 m 853 ft / 260 m PREC-APP CENTERLINE EDGE THRESHOLD SALS
25L 148 ft / 45 m 12,550 ft / 3,825 m 248.94° / 249.46° ASPHALT 0 ft / 0 m 1,027 ft / 313 m PREC-APP CENTERLINE EDGE THRESHOLD ALSF-II TDZ
25R 148 ft / 45 m 9,971 ft / 3,039 m 248.94° / 249.46° ASPHALT 0 ft / 0 m 1,033 ft / 315 m PREC-APP EDGE THRESHOLD ALSF-II

VVCI

Details ICAO VVCI (HPH)
Name HAIPHONG CATBI
Region Vietnam
Timezone Asia/Ho_Chi_Minh (UTC+7.0)
Stats Elevation 6 ft / 2 m (AMSL)
Location 20.819400° 106.725000°
Runways 1
Magnetic Variation 1.583° W

METAR

VVCI 160930Z 04006KT CAVOK 19/11 Q1021 NOSIG

Decode

TAF

TAF VVCI 160500Z 1606/1706 03007KT 8000 BKN030= TAF VVCR 160500Z 1606/1706 06016KT 9999 SCT015 BKN040 TEMPO 1608/1612 06018G28KT 5000 RA SCT013 FEW015CB BKN04 0 TEMPO 1700/1704 06016G26KT 5000 RA BKN013 BKN040

Decode

Destination Runways

ID Width Length Bearing (true/mag) Surface Threshold Overrun Markings Lighting
07 164 ft / 50 m 7,879 ft / 2,402 m 72.18° / 73.76° ASPHALT 0 ft / 0 m 0 ft / 0 m APP SSALR
25 164 ft / 50 m 7,879 ft / 2,402 m 252.19° / 253.77° ASPHALT 0 ft / 0 m 0 ft / 0 m APP REIL-OMNI

Popular Alternatives